createdAt,value
2023-02-16T00:05:44.649Z,76871.88
2023-02-16T00:15:50.612Z,76861.75
2023-02-16T00:25:52.781Z,76841.50
2023-02-16T00:35:55.964Z,76817.22
2023-02-16T00:46:00.688Z,76815.19
2023-02-16T00:56:04.744Z,76819.25
2023-02-16T01:06:29.720Z,76811.13
2023-02-16T01:16:42.826Z,76815.19
2023-02-16T01:26:49.955Z,76811.13
2023-02-16T01:36:53.203Z,76794.94
2023-02-16T01:47:21.925Z,76784.81
2023-02-16T01:57:39.243Z,76778.75
2023-02-16T02:08:12.061Z,76766.59
2023-02-16T02:18:17.206Z,76772.69
2023-02-16T02:29:01.075Z,76780.78
2023-02-16T02:39:10.403Z,76778.75
2023-02-16T02:49:17.192Z,76788.88
2023-02-16T02:59:40.180Z,76784.81
2023-02-16T03:09:44.763Z,76780.78
2023-02-16T03:20:10.952Z,76782.78
2023-02-16T03:30:16.381Z,76786.84
2023-02-16T03:40:31.966Z,76792.91
2023-02-16T03:50:40.022Z,76794.94
2023-02-16T04:00:45.093Z,76784.81
2023-02-16T04:10:47.419Z,76792.91
2023-02-16T04:20:52.533Z,76790.91
2023-02-16T04:31:03.520Z,76803.03
2023-02-16T04:41:09.548Z,76809.13
2023-02-16T04:51:20.876Z,76803.03
2023-02-16T05:01:24.729Z,76805.06
2023-02-16T05:11:46.044Z,76792.91
2023-02-16T05:21:53.160Z,76788.88
2023-02-16T05:31:57.969Z,76790.91
2023-02-16T05:42:02.048Z,76790.91
2023-02-16T05:52:08.049Z,76790.91
2023-02-16T06:02:14.105Z,76774.69
2023-02-16T06:12:18.365Z,76762.56
2023-02-16T06:22:22.095Z,76738.25
2023-02-16T06:32:29.454Z,76709.91
2023-02-16T06:42:37.319Z,76671.47
2023-02-16T06:52:39.585Z,76633.00
2023-02-16T07:02:43.600Z,76552.03
2023-02-16T07:12:46.470Z,76507.50
2023-02-16T07:22:50.907Z,76434.63
2023-02-16T07:32:58.394Z,76325.31
2023-02-16T07:43:07.970Z,76319.25
2023-02-16T07:53:13.112Z,76309.13
2023-02-16T08:03:20.167Z,76319.25
2023-02-16T08:13:24.705Z,76268.66
2023-02-16T08:23:26.930Z,76203.88
2023-02-16T08:33:34.862Z,76179.59
2023-02-16T08:43:37.039Z,76207.94
2023-02-16T08:53:46.562Z,76181.63
2023-02-16T09:03:50.416Z,76155.31
2023-02-16T09:13:52.586Z,76163.41
2023-02-16T09:23:56.603Z,76147.22
2023-02-16T09:34:08.494Z,76070.28
2023-02-16T09:44:33.966Z,76114.81
2023-02-16T09:54:57.851Z,76129.00
2023-02-16T10:05:31.208Z,76135.06
2023-02-16T10:15:35.037Z,76114.81
2023-02-16T10:25:57.776Z,76110.78
2023-02-16T10:36:03.158Z,76118.88
2023-02-16T10:46:08.662Z,76054.09
2023-02-16T10:56:34.991Z,76013.63
2023-02-16T11:06:40.142Z,75981.25
2023-02-16T11:16:42.283Z,75985.28
2023-02-16T11:26:44.723Z,75981.25
2023-02-16T11:36:47.531Z,75934.69
2023-02-16T11:46:50.377Z,75888.13
2023-02-16T11:57:15.781Z,75878.03
2023-02-16T12:07:52.066Z,75851.72
2023-02-16T12:18:34.875Z,75851.72
2023-02-16T12:29:01.612Z,75819.31
2023-02-16T12:39:37.128Z,75843.63
2023-02-16T12:49:56.342Z,75835.53
2023-02-16T13:00:01.079Z,75821.34
2023-02-16T13:10:17.641Z,75827.44
2023-02-16T13:20:24.902Z,75837.53
2023-02-16T13:30:48.760Z,75791.00
2023-02-16T13:41:28.630Z,75795.03
2023-02-16T13:51:42.305Z,75786.94
2023-02-16T14:01:54.413Z,75778.84
2023-02-16T14:11:57.698Z,75795.03
2023-02-16T14:22:12.595Z,75809.22
2023-02-16T14:32:26.847Z,75823.38
2023-02-16T14:42:35.663Z,75827.44
2023-02-16T14:52:51.207Z,75827.44
2023-02-16T15:02:58.211Z,75853.72
2023-02-16T15:13:00.324Z,75845.63
2023-02-16T15:23:21.764Z,75855.75
2023-02-16T15:33:39.676Z,75861.81
2023-02-16T15:43:50.388Z,75867.91
2023-02-16T15:54:00.939Z,75890.16
2023-02-16T16:04:25.577Z,75896.22
2023-02-16T16:14:28.630Z,75896.22
2023-02-16T16:24:35.730Z,75900.28
2023-02-16T16:34:39.987Z,75916.47
2023-02-16T16:45:13.872Z,75904.34
2023-02-16T16:55:44.244Z,75906.34
2023-02-16T17:05:51.067Z,75888.13
2023-02-16T17:16:07.493Z,75900.28
2023-02-16T17:26:12.298Z,75912.44
2023-02-16T17:36:16.019Z,75912.44
2023-02-16T17:46:19.465Z,75922.53
2023-02-16T17:56:23.141Z,75924.56
2023-02-16T18:06:32.112Z,75928.63
2023-02-16T18:16:36.687Z,75936.72
2023-02-16T18:26:40.107Z,75958.97
2023-02-16T18:36:46.564Z,75967.06
2023-02-16T18:46:52.473Z,75981.25
2023-02-16T18:56:55.134Z,76001.47
2023-02-16T19:07:00.817Z,76013.63
2023-02-16T19:17:06.121Z,76013.63
2023-02-16T19:27:10.487Z,76025.75
2023-02-16T19:37:15.368Z,76037.91
2023-02-16T19:47:20.349Z,76054.09
2023-02-16T19:57:25.950Z,76068.28
2023-02-16T20:07:31.081Z,76076.38
2023-02-16T20:17:33.590Z,76092.56
2023-02-16T20:27:36.435Z,76112.78
2023-02-16T20:37:40.361Z,76118.88
2023-02-16T20:47:48.182Z,76118.88
2023-02-16T20:57:52.521Z,76114.81
2023-02-16T21:07:59.051Z,76102.69
2023-02-16T21:18:01.222Z,76120.91
2023-02-16T21:28:05.749Z,76116.84
2023-02-16T21:38:13.756Z,76098.63
2023-02-16T21:48:34.473Z,76096.59
2023-02-16T21:58:36.655Z,76076.38
2023-02-16T22:08:42.488Z,76082.44
2023-02-16T22:18:47.830Z,76082.44
2023-02-16T22:28:50.702Z,76074.34
2023-02-16T22:38:53.905Z,76078.38
2023-02-16T22:48:58.710Z,76102.69
2023-02-16T22:59:03.496Z,76102.69
2023-02-16T23:09:09.234Z,76090.53
2023-02-16T23:19:18.180Z,76088.50
2023-02-16T23:29:22.605Z,76086.47
2023-02-16T23:39:28.746Z,76090.53
2023-02-16T23:49:34.790Z,76094.59
2023-02-16T23:59:37.122Z,76090.53
